sensor_id;sensor_type;location;lat;lon;timestamp;P1;durP1;ratioP1;P2;durP2;ratioP2
20411;SDS011;10365;52.578;8.138;2023-01-23T00:01:30;18.90;;;8.15;;
20411;SDS011;10365;52.578;8.138;2023-01-23T00:03:55;24.55;;;10.82;;
20411;SDS011;10365;52.578;8.138;2023-01-23T00:06:21;23.75;;;9.90;;
20411;SDS011;10365;52.578;8.138;2023-01-23T00:08:47;23.40;;;8.70;;
20411;SDS011;10365;52.578;8.138;2023-01-23T00:11:14;23.20;;;9.20;;
20411;SDS011;10365;52.578;8.138;2023-01-23T00:13:39;14.02;;;7.53;;
20411;SDS011;10365;52.578;8.138;2023-01-23T00:16:05;17.90;;;8.52;;
20411;SDS011;10365;52.578;8.138;2023-01-23T00:18:31;18.27;;;9.57;;
20411;SDS011;10365;52.578;8.138;2023-01-23T00:20:56;24.73;;;10.25;;
20411;SDS011;10365;52.578;8.138;2023-01-23T00:23:22;26.30;;;11.13;;
20411;SDS011;10365;52.578;8.138;2023-01-23T00:25:48;20.25;;;9.40;;
20411;SDS011;10365;52.578;8.138;2023-01-23T00:28:13;23.95;;;10.80;;
20411;SDS011;10365;52.578;8.138;2023-01-23T00:30:38;32.17;;;10.90;;
20411;SDS011;10365;52.578;8.138;2023-01-23T00:33:03;22.40;;;9.50;;
20411;SDS011;10365;52.578;8.138;2023-01-23T00:35:29;22.55;;;9.95;;
20411;SDS011;10365;52.578;8.138;2023-01-23T00:37:54;19.75;;;9.30;;
20411;SDS011;10365;52.578;8.138;2023-01-23T00:40:19;28.80;;;10.15;;
20411;SDS011;10365;52.578;8.138;2023-01-23T00:42:45;18.92;;;8.90;;
20411;SDS011;10365;52.578;8.138;2023-01-23T00:45:10;23.83;;;9.18;;
20411;SDS011;10365;52.578;8.138;2023-01-23T00:47:36;18.58;;;9.20;;
20411;SDS011;10365;52.578;8.138;2023-01-23T00:50:01;19.90;;;9.05;;
20411;SDS011;10365;52.578;8.138;2023-01-23T00:52:26;20.45;;;9.18;;
20411;SDS011;10365;52.578;8.138;2023-01-23T00:54:52;24.67;;;9.38;;
20411;SDS011;10365;52.578;8.138;2023-01-23T00:57:18;23.60;;;9.68;;
20411;SDS011;10365;52.578;8.138;2023-01-23T00:59:44;23.55;;;10.20;;
20411;SDS011;10365;52.578;8.138;2023-01-23T01:02:10;21.20;;;10.25;;
20411;SDS011;10365;52.578;8.138;2023-01-23T01:04:35;22.52;;;9.38;;
20411;SDS011;10365;52.578;8.138;2023-01-23T01:07:01;21.25;;;9.18;;
20411;SDS011;10365;52.578;8.138;2023-01-23T01:09:26;17.30;;;9.73;;
20411;SDS011;10365;52.578;8.138;2023-01-23T01:11:51;23.17;;;9.45;;
20411;SDS011;10365;52.578;8.138;2023-01-23T01:14:17;26.73;;;9.80;;
20411;SDS011;10365;52.578;8.138;2023-01-23T01:16:45;26.30;;;11.15;;
20411;SDS011;10365;52.578;8.138;2023-01-23T01:19:14;33.13;;;12.85;;
20411;SDS011;10365;52.578;8.138;2023-01-23T01:21:40;29.20;;;12.75;;
20411;SDS011;10365;52.578;8.138;2023-01-23T01:24:06;31.08;;;13.27;;
20411;SDS011;10365;52.578;8.138;2023-01-23T01:26:32;28.58;;;12.27;;
20411;SDS011;10365;52.578;8.138;2023-01-23T01:28:57;26.65;;;10.88;;
20411;SDS011;10365;52.578;8.138;2023-01-23T01:31:22;20.55;;;9.75;;
20411;SDS011;10365;52.578;8.138;2023-01-23T01:33:48;29.17;;;10.77;;
20411;SDS011;10365;52.578;8.138;2023-01-23T01:36:17;27.67;;;9.55;;
20411;SDS011;10365;52.578;8.138;2023-01-23T01:38:45;27.25;;;11.55;;
20411;SDS011;10365;52.578;8.138;2023-01-23T01:41:10;20.77;;;10.93;;
20411;SDS011;10365;52.578;8.138;2023-01-23T01:43:36;22.35;;;10.18;;
20411;SDS011;10365;52.578;8.138;2023-01-23T01:50:57;20.95;;;10.48;;
20411;SDS011;10365;52.578;8.138;2023-01-23T01:53:23;31.10;;;11.00;;
20411;SDS011;10365;52.578;8.138;2023-01-23T01:55:49;25.73;;;11.68;;
20411;SDS011;10365;52.578;8.138;2023-01-23T01:58:15;26.67;;;11.80;;
20411;SDS011;10365;52.578;8.138;2023-01-23T02:00:40;28.50;;;14.10;;
20411;SDS011;10365;52.578;8.138;2023-01-23T02:03:06;38.15;;;14.63;;
20411;SDS011;10365;52.578;8.138;2023-01-23T02:05:34;28.13;;;11.57;;
20411;SDS011;10365;52.578;8.138;2023-01-23T02:10:29;27.95;;;11.68;;
20411;SDS011;10365;52.578;8.138;2023-01-23T02:12:54;20.38;;;10.38;;
20411;SDS011;10365;52.578;8.138;2023-01-23T02:15:20;21.33;;;10.65;;
20411;SDS011;10365;52.578;8.138;2023-01-23T02:17:46;22.52;;;10.43;;
20411;SDS011;10365;52.578;8.138;2023-01-23T02:25:33;25.13;;;11.55;;
20411;SDS011;10365;52.578;8.138;2023-01-23T02:28:01;27.50;;;11.82;;
20411;SDS011;10365;52.578;8.138;2023-01-23T02:30:32;20.00;;;11.68;;
20411;SDS011;10365;52.578;8.138;2023-01-23T02:33:10;22.77;;;11.55;;
20411;SDS011;10365;52.578;8.138;2023-01-23T02:35:55;22.50;;;12.38;;
20411;SDS011;10365;52.578;8.138;2023-01-23T02:38:21;28.40;;;12.15;;
20411;SDS011;10365;52.578;8.138;2023-01-23T02:40:49;20.92;;;10.90;;
20411;SDS011;10365;52.578;8.138;2023-01-23T02:43:19;25.67;;;11.48;;
20411;SDS011;10365;52.578;8.138;2023-01-23T02:45:53;30.17;;;12.05;;
20411;SDS011;10365;52.578;8.138;2023-01-23T02:48:19;17.85;;;10.77;;
20411;SDS011;10365;52.578;8.138;2023-01-23T02:50:46;20.83;;;11.98;;
20411;SDS011;10365;52.578;8.138;2023-01-23T02:53:12;26.90;;;12.13;;
20411;SDS011;10365;52.578;8.138;2023-01-23T02:55:37;23.73;;;11.02;;
20411;SDS011;10365;52.578;8.138;2023-01-23T02:58:07;28.08;;;11.65;;
20411;SDS011;10365;52.578;8.138;2023-01-23T03:00:52;22.00;;;9.95;;
20411;SDS011;10365;52.578;8.138;2023-01-23T03:03:17;34.95;;;12.68;;
20411;SDS011;10365;52.578;8.138;2023-01-23T03:05:42;30.45;;;11.77;;
20411;SDS011;10365;52.578;8.138;2023-01-23T03:08:09;21.27;;;9.88;;
20411;SDS011;10365;52.578;8.138;2023-01-23T03:10:34;23.15;;;11.10;;
20411;SDS011;10365;52.578;8.138;2023-01-23T03:13:00;23.98;;;10.85;;
20411;SDS011;10365;52.578;8.138;2023-01-23T03:15:32;21.27;;;10.13;;
20411;SDS011;10365;52.578;8.138;2023-01-23T03:17:58;23.20;;;10.32;;
20411;SDS011;10365;52.578;8.138;2023-01-23T03:20:23;22.05;;;11.77;;
20411;SDS011;10365;52.578;8.138;2023-01-23T03:22:51;21.45;;;10.75;;
20411;SDS011;10365;52.578;8.138;2023-01-23T03:25:16;21.00;;;10.93;;
20411;SDS011;10365;52.578;8.138;2023-01-23T03:27:42;21.75;;;11.07;;
20411;SDS011;10365;52.578;8.138;2023-01-23T03:30:07;25.27;;;12.05;;
20411;SDS011;10365;52.578;8.138;2023-01-23T03:32:44;26.67;;;12.05;;
20411;SDS011;10365;52.578;8.138;2023-01-23T03:35:10;30.05;;;12.35;;
20411;SDS011;10365;52.578;8.138;2023-01-23T03:37:41;23.95;;;11.30;;
20411;SDS011;10365;52.578;8.138;2023-01-23T03:40:10;25.75;;;11.43;;
20411;SDS011;10365;52.578;8.138;2023-01-23T03:43:12;22.33;;;10.60;;
20411;SDS011;10365;52.578;8.138;2023-01-23T03:45:43;28.67;;;11.73;;
20411;SDS011;10365;52.578;8.138;2023-01-23T03:48:08;22.40;;;11.82;;
20411;SDS011;10365;52.578;8.138;2023-01-23T03:50:34;22.25;;;12.43;;
20411;SDS011;10365;52.578;8.138;2023-01-23T03:53:00;22.95;;;11.88;;
20411;SDS011;10365;52.578;8.138;2023-01-23T03:55:25;25.50;;;11.88;;
20411;SDS011;10365;52.578;8.138;2023-01-23T03:57:51;21.92;;;10.73;;
20411;SDS011;10365;52.578;8.138;2023-01-23T04:00:17;22.00;;;10.38;;
20411;SDS011;10365;52.578;8.138;2023-01-23T04:02:53;22.45;;;10.63;;
20411;SDS011;10365;52.578;8.138;2023-01-23T04:05:19;23.17;;;10.85;;
20411;SDS011;10365;52.578;8.138;2023-01-23T04:07:44;24.23;;;11.63;;
20411;SDS011;10365;52.578;8.138;2023-01-23T04:10:09;20.13;;;11.07;;
20411;SDS011;10365;52.578;8.138;2023-01-23T04:12:35;22.85;;;10.63;;
20411;SDS011;10365;52.578;8.138;2023-01-23T04:15:01;19.50;;;11.00;;
20411;SDS011;10365;52.578;8.138;2023-01-23T04:17:27;24.60;;;11.45;;
20411;SDS011;10365;52.578;8.138;2023-01-23T04:19:52;20.65;;;11.40;;
20411;SDS011;10365;52.578;8.138;2023-01-23T04:22:17;21.63;;;11.80;;
20411;SDS011;10365;52.578;8.138;2023-01-23T04:24:46;21.40;;;10.50;;
20411;SDS011;10365;52.578;8.138;2023-01-23T04:27:12;21.90;;;10.13;;
20411;SDS011;10365;52.578;8.138;2023-01-23T04:29:38;28.52;;;10.50;;
20411;SDS011;10365;52.578;8.138;2023-01-23T04:32:05;18.05;;;10.18;;
20411;SDS011;10365;52.578;8.138;2023-01-23T04:34:34;23.33;;;10.65;;
20411;SDS011;10365;52.578;8.138;2023-01-23T04:37:00;22.67;;;10.60;;
20411;SDS011;10365;52.578;8.138;2023-01-23T04:39:26;22.05;;;10.85;;
20411;SDS011;10365;52.578;8.138;2023-01-23T04:41:51;19.90;;;11.00;;
20411;SDS011;10365;52.578;8.138;2023-01-23T04:44:46;19.08;;;11.60;;
20411;SDS011;10365;52.578;8.138;2023-01-23T04:47:38;22.23;;;10.85;;
20411;SDS011;10365;52.578;8.138;2023-01-23T04:50:07;25.20;;;10.93;;
20411;SDS011;10365;52.578;8.138;2023-01-23T04:52:33;23.90;;;11.50;;
20411;SDS011;10365;52.578;8.138;2023-01-23T04:54:59;20.80;;;11.68;;
20411;SDS011;10365;52.578;8.138;2023-01-23T04:57:24;23.45;;;11.32;;
20411;SDS011;10365;52.578;8.138;2023-01-23T04:59:55;20.75;;;10.93;;
20411;SDS011;10365;52.578;8.138;2023-01-23T05:02:21;26.70;;;10.55;;
20411;SDS011;10365;52.578;8.138;2023-01-23T05:04:47;26.45;;;11.10;;
20411;SDS011;10365;52.578;8.138;2023-01-23T05:07:12;27.50;;;11.20;;
20411;SDS011;10365;52.578;8.138;2023-01-23T05:09:43;18.40;;;9.82;;
20411;SDS011;10365;52.578;8.138;2023-01-23T05:12:12;17.42;;;9.38;;
20411;SDS011;10365;52.578;8.138;2023-01-23T05:14:38;19.60;;;10.27;;
20411;SDS011;10365;52.578;8.138;2023-01-23T05:17:03;18.00;;;10.02;;
20411;SDS011;10365;52.578;8.138;2023-01-23T05:19:50;18.95;;;9.85;;
20411;SDS011;10365;52.578;8.138;2023-01-23T05:22:17;23.02;;;11.68;;
20411;SDS011;10365;52.578;8.138;2023-01-23T05:24:42;31.40;;;13.15;;
20411;SDS011;10365;52.578;8.138;2023-01-23T05:27:08;23.98;;;11.52;;
20411;SDS011;10365;52.578;8.138;2023-01-23T05:29:38;23.98;;;10.93;;
20411;SDS011;10365;52.578;8.138;2023-01-23T05:32:12;20.52;;;10.82;;
20411;SDS011;10365;52.578;8.138;2023-01-23T05:34:41;24.52;;;11.05;;
20411;SDS011;10365;52.578;8.138;2023-01-23T05:37:16;25.02;;;12.80;;
20411;SDS011;10365;52.578;8.138;2023-01-23T05:39:45;20.15;;;10.98;;
20411;SDS011;10365;52.578;8.138;2023-01-23T05:42:10;24.67;;;12.35;;
20411;SDS011;10365;52.578;8.138;2023-01-23T05:44:59;19.75;;;10.68;;
20411;SDS011;10365;52.578;8.138;2023-01-23T05:47:28;30.17;;;11.93;;
20411;SDS011;10365;52.578;8.138;2023-01-23T05:49:55;25.48;;;11.73;;
20411;SDS011;10365;52.578;8.138;2023-01-23T05:52:24;27.45;;;14.20;;
20411;SDS011;10365;52.578;8.138;2023-01-23T05:54:49;34.78;;;15.35;;
20411;SDS011;10365;52.578;8.138;2023-01-23T05:57:15;30.30;;;14.43;;
20411;SDS011;10365;52.578;8.138;2023-01-23T06:00:07;32.05;;;15.57;;
20411;SDS011;10365;52.578;8.138;2023-01-23T06:03:05;41.65;;;16.98;;
20411;SDS011;10365;52.578;8.138;2023-01-23T06:05:46;30.27;;;13.55;;
20411;SDS011;10365;52.578;8.138;2023-01-23T06:08:16;29.77;;;13.93;;
20411;SDS011;10365;52.578;8.138;2023-01-23T06:10:42;27.42;;;15.05;;
20411;SDS011;10365;52.578;8.138;2023-01-23T06:13:07;31.65;;;12.35;;
20411;SDS011;10365;52.578;8.138;2023-01-23T06:15:35;30.25;;;13.88;;
20411;SDS011;10365;52.578;8.138;2023-01-23T06:18:04;23.50;;;12.82;;
20411;SDS011;10365;52.578;8.138;2023-01-23T06:20:30;27.55;;;13.90;;
20411;SDS011;10365;52.578;8.138;2023-01-23T06:22:55;29.25;;;15.23;;
20411;SDS011;10365;52.578;8.138;2023-01-23T06:25:21;30.08;;;14.48;;
20411;SDS011;10365;52.578;8.138;2023-01-23T06:27:47;25.48;;;13.50;;
20411;SDS011;10365;52.578;8.138;2023-01-23T06:30:12;29.08;;;11.98;;
20411;SDS011;10365;52.578;8.138;2023-01-23T06:32:40;24.13;;;11.43;;
20411;SDS011;10365;52.578;8.138;2023-01-23T06:35:07;26.02;;;11.35;;
20411;SDS011;10365;52.578;8.138;2023-01-23T06:37:36;20.20;;;10.18;;
20411;SDS011;10365;52.578;8.138;2023-01-23T06:40:02;24.15;;;13.05;;
20411;SDS011;10365;52.578;8.138;2023-01-23T06:42:28;35.22;;;13.30;;
20411;SDS011;10365;52.578;8.138;2023-01-23T06:44:54;35.80;;;15.27;;
20411;SDS011;10365;52.578;8.138;2023-01-23T06:47:21;28.83;;;14.98;;
20411;SDS011;10365;52.578;8.138;2023-01-23T06:49:54;24.75;;;12.80;;
20411;SDS011;10365;52.578;8.138;2023-01-23T06:52:19;27.42;;;12.95;;
20411;SDS011;10365;52.578;8.138;2023-01-23T06:54:46;21.27;;;11.40;;
20411;SDS011;10365;52.578;8.138;2023-01-23T06:57:11;26.00;;;11.60;;
20411;SDS011;10365;52.578;8.138;2023-01-23T06:59:37;22.27;;;11.90;;
20411;SDS011;10365;52.578;8.138;2023-01-23T07:02:08;22.33;;;11.70;;
20411;SDS011;10365;52.578;8.138;2023-01-23T07:04:42;25.23;;;12.38;;
20411;SDS011;10365;52.578;8.138;2023-01-23T07:07:09;24.23;;;11.57;;
20411;SDS011;10365;52.578;8.138;2023-01-23T07:09:34;26.55;;;11.60;;
20411;SDS011;10365;52.578;8.138;2023-01-23T07:12:06;28.85;;;11.77;;
20411;SDS011;10365;52.578;8.138;2023-01-23T07:14:32;24.67;;;11.60;;
20411;SDS011;10365;52.578;8.138;2023-01-23T07:16:57;24.95;;;12.10;;
20411;SDS011;10365;52.578;8.138;2023-01-23T07:19:23;26.80;;;12.82;;
20411;SDS011;10365;52.578;8.138;2023-01-23T07:21:49;20.42;;;10.85;;
20411;SDS011;10365;52.578;8.138;2023-01-23T07:24:14;23.90;;;11.32;;
20411;SDS011;10365;52.578;8.138;2023-01-23T07:26:40;21.17;;;11.50;;
20411;SDS011;10365;52.578;8.138;2023-01-23T07:29:05;20.65;;;10.93;;
20411;SDS011;10365;52.578;8.138;2023-01-23T07:31:31;23.70;;;11.75;;
20411;SDS011;10365;52.578;8.138;2023-01-23T07:33:56;26.20;;;13.30;;
20411;SDS011;10365;52.578;8.138;2023-01-23T07:36:21;24.10;;;12.38;;
20411;SDS011;10365;52.578;8.138;2023-01-23T07:38:47;20.95;;;11.07;;
20411;SDS011;10365;52.578;8.138;2023-01-23T07:41:12;27.73;;;12.55;;
20411;SDS011;10365;52.578;8.138;2023-01-23T07:43:37;39.47;;;18.70;;
20411;SDS011;10365;52.578;8.138;2023-01-23T07:46:03;35.63;;;16.48;;
20411;SDS011;10365;52.578;8.138;2023-01-23T07:48:28;27.30;;;12.20;;
20411;SDS011;10365;52.578;8.138;2023-01-23T07:50:54;21.42;;;12.05;;
20411;SDS011;10365;52.578;8.138;2023-01-23T07:53:19;25.25;;;13.52;;
20411;SDS011;10365;52.578;8.138;2023-01-23T07:55:44;22.35;;;11.55;;
20411;SDS011;10365;52.578;8.138;2023-01-23T07:58:10;28.75;;;14.73;;
20411;SDS011;10365;52.578;8.138;2023-01-23T08:00:35;29.73;;;13.52;;
20411;SDS011;10365;52.578;8.138;2023-01-23T08:03:01;29.55;;;12.52;;
20411;SDS011;10365;52.578;8.138;2023-01-23T08:05:26;29.10;;;13.77;;
20411;SDS011;10365;52.578;8.138;2023-01-23T08:07:51;23.90;;;11.77;;
20411;SDS011;10365;52.578;8.138;2023-01-23T08:10:17;25.02;;;12.35;;
20411;SDS011;10365;52.578;8.138;2023-01-23T08:12:42;24.92;;;12.35;;
20411;SDS011;10365;52.578;8.138;2023-01-23T08:15:08;38.10;;;17.58;;
20411;SDS011;10365;52.578;8.138;2023-01-23T08:17:33;34.60;;;14.05;;
20411;SDS011;10365;52.578;8.138;2023-01-23T08:19:58;24.67;;;13.25;;
20411;SDS011;10365;52.578;8.138;2023-01-23T08:22:24;26.40;;;11.93;;
20411;SDS011;10365;52.578;8.138;2023-01-23T08:24:49;26.70;;;11.63;;
20411;SDS011;10365;52.578;8.138;2023-01-23T08:27:14;40.40;;;16.45;;
20411;SDS011;10365;52.578;8.138;2023-01-23T08:29:40;46.90;;;21.67;;
20411;SDS011;10365;52.578;8.138;2023-01-23T08:32:05;33.60;;;15.30;;
20411;SDS011;10365;52.578;8.138;2023-01-23T08:34:30;26.55;;;13.07;;
20411;SDS011;10365;52.578;8.138;2023-01-23T08:36:56;23.65;;;12.02;;
20411;SDS011;10365;52.578;8.138;2023-01-23T08:39:21;23.85;;;12.07;;
20411;SDS011;10365;52.578;8.138;2023-01-23T08:41:48;26.85;;;11.80;;
20411;SDS011;10365;52.578;8.138;2023-01-23T08:44:14;28.02;;;12.90;;
20411;SDS011;10365;52.578;8.138;2023-01-23T08:46:39;25.48;;;12.70;;
20411;SDS011;10365;52.578;8.138;2023-01-23T08:49:05;24.08;;;12.27;;
20411;SDS011;10365;52.578;8.138;2023-01-23T08:51:30;48.85;;;15.23;;
20411;SDS011;10365;52.578;8.138;2023-01-23T08:53:56;34.28;;;12.80;;
20411;SDS011;10365;52.578;8.138;2023-01-23T08:56:22;25.40;;;12.57;;
20411;SDS011;10365;52.578;8.138;2023-01-23T08:58:47;27.85;;;11.65;;
20411;SDS011;10365;52.578;8.138;2023-01-23T09:01:13;31.75;;;13.57;;
20411;SDS011;10365;52.578;8.138;2023-01-23T09:03:39;26.63;;;12.02;;
20411;SDS011;10365;52.578;8.138;2023-01-23T09:06:04;36.13;;;13.40;;
20411;SDS011;10365;52.578;8.138;2023-01-23T09:08:30;24.15;;;11.13;;
20411;SDS011;10365;52.578;8.138;2023-01-23T09:10:59;25.58;;;11.95;;
20411;SDS011;10365;52.578;8.138;2023-01-23T09:13:25;31.67;;;13.05;;
20411;SDS011;10365;52.578;8.138;2023-01-23T09:15:50;26.05;;;12.60;;
20411;SDS011;10365;52.578;8.138;2023-01-23T09:18:16;29.65;;;13.40;;
20411;SDS011;10365;52.578;8.138;2023-01-23T09:20:42;42.58;;;14.63;;
20411;SDS011;10365;52.578;8.138;2023-01-23T09:23:07;30.90;;;12.77;;
20411;SDS011;10365;52.578;8.138;2023-01-23T09:25:33;45.45;;;16.02;;
20411;SDS011;10365;52.578;8.138;2023-01-23T09:27:58;55.38;;;15.38;;
20411;SDS011;10365;52.578;8.138;2023-01-23T09:30:23;54.33;;;15.43;;
20411;SDS011;10365;52.578;8.138;2023-01-23T09:32:49;41.67;;;15.77;;
20411;SDS011;10365;52.578;8.138;2023-01-23T09:35:14;34.63;;;16.42;;
20411;SDS011;10365;52.578;8.138;2023-01-23T09:37:40;27.48;;;13.52;;
20411;SDS011;10365;52.578;8.138;2023-01-23T09:40:24;28.48;;;13.15;;
20411;SDS011;10365;52.578;8.138;2023-01-23T09:42:50;29.83;;;13.40;;
20411;SDS011;10365;52.578;8.138;2023-01-23T09:45:17;25.17;;;12.00;;
20411;SDS011;10365;52.578;8.138;2023-01-23T09:47:57;26.45;;;12.43;;
20411;SDS011;10365;52.578;8.138;2023-01-23T09:50:26;24.55;;;12.30;;
20411;SDS011;10365;52.578;8.138;2023-01-23T09:52:55;26.80;;;12.57;;
20411;SDS011;10365;52.578;8.138;2023-01-23T09:55:24;23.95;;;11.90;;
20411;SDS011;10365;52.578;8.138;2023-01-23T09:57:56;26.83;;;11.90;;
20411;SDS011;10365;52.578;8.138;2023-01-23T10:00:28;26.65;;;13.40;;
20411;SDS011;10365;52.578;8.138;2023-01-23T10:02:57;25.13;;;12.57;;
20411;SDS011;10365;52.578;8.138;2023-01-23T10:05:27;34.33;;;12.85;;
20411;SDS011;10365;52.578;8.138;2023-01-23T10:18:18;23.58;;;11.65;;
20411;SDS011;10365;52.578;8.138;2023-01-23T10:20:52;23.80;;;11.90;;
20411;SDS011;10365;52.578;8.138;2023-01-23T10:25:48;20.10;;;11.32;;
20411;SDS011;10365;52.578;8.138;2023-01-23T10:30:42;23.20;;;10.77;;
20411;SDS011;10365;52.578;8.138;2023-01-23T10:33:15;26.10;;;10.90;;
20411;SDS011;10365;52.578;8.138;2023-01-23T10:40:43;30.88;;;15.77;;
20411;SDS011;10365;52.578;8.138;2023-01-23T10:43:26;18.23;;;10.45;;
20411;SDS011;10365;52.578;8.138;2023-01-23T10:45:52;25.63;;;12.52;;
20411;SDS011;10365;52.578;8.138;2023-01-23T10:51:01;22.35;;;9.00;;
20411;SDS011;10365;52.578;8.138;2023-01-23T10:53:28;23.63;;;9.88;;
20411;SDS011;10365;52.578;8.138;2023-01-23T10:55:54;18.45;;;10.32;;
20411;SDS011;10365;52.578;8.138;2023-01-23T11:00:49;22.92;;;9.50;;
20411;SDS011;10365;52.578;8.138;2023-01-23T11:05:53;17.20;;;9.68;;
20411;SDS011;10365;52.578;8.138;2023-01-23T11:10:47;20.25;;;9.68;;
20411;SDS011;10365;52.578;8.138;2023-01-23T11:13:34;16.65;;;9.32;;
20411;SDS011;10365;52.578;8.138;2023-01-23T11:15:58;20.77;;;8.80;;
20411;SDS011;10365;52.578;8.138;2023-01-23T11:18:33;20.75;;;10.38;;
20411;SDS011;10365;52.578;8.138;2023-01-23T11:21:00;18.55;;;10.15;;
20411;SDS011;10365;52.578;8.138;2023-01-23T11:23:25;18.75;;;9.98;;
20411;SDS011;10365;52.578;8.138;2023-01-23T11:25:51;20.20;;;10.57;;
20411;SDS011;10365;52.578;8.138;2023-01-23T11:33:46;22.38;;;11.15;;
20411;SDS011;10365;52.578;8.138;2023-01-23T11:38:46;18.23;;;11.07;;
20411;SDS011;10365;52.578;8.138;2023-01-23T11:41:12;18.40;;;11.63;;
20411;SDS011;10365;52.578;8.138;2023-01-23T11:43:38;24.95;;;12.52;;
20411;SDS011;10365;52.578;8.138;2023-01-23T11:49:03;25.02;;;12.65;;
20411;SDS011;10365;52.578;8.138;2023-01-23T11:51:37;19.42;;;11.45;;
20411;SDS011;10365;52.578;8.138;2023-01-23T11:54:16;21.95;;;11.98;;
20411;SDS011;10365;52.578;8.138;2023-01-23T11:56:47;25.63;;;13.07;;
20411;SDS011;10365;52.578;8.138;2023-01-23T12:09:21;28.63;;;14.38;;
20411;SDS011;10365;52.578;8.138;2023-01-23T12:12:10;28.83;;;15.73;;
20411;SDS011;10365;52.578;8.138;2023-01-23T12:25:21;29.92;;;16.60;;
20411;SDS011;10365;52.578;8.138;2023-01-23T12:27:49;27.85;;;15.20;;
20411;SDS011;10365;52.578;8.138;2023-01-23T12:33:15;25.48;;;15.40;;
20411;SDS011;10365;52.578;8.138;2023-01-23T12:40:57;22.80;;;13.55;;
20411;SDS011;10365;52.578;8.138;2023-01-23T12:45:58;26.75;;;14.98;;
20411;SDS011;10365;52.578;8.138;2023-01-23T12:48:36;26.13;;;14.73;;
20411;SDS011;10365;52.578;8.138;2023-01-23T12:51:05;24.98;;;15.10;;
20411;SDS011;10365;52.578;8.138;2023-01-23T12:53:33;29.98;;;16.00;;
20411;SDS011;10365;52.578;8.138;2023-01-23T12:56:08;28.83;;;16.08;;
20411;SDS011;10365;52.578;8.138;2023-01-23T12:58:35;31.63;;;15.88;;
20411;SDS011;10365;52.578;8.138;2023-01-23T13:03:43;28.88;;;15.75;;
20411;SDS011;10365;52.578;8.138;2023-01-23T13:06:26;31.73;;;15.00;;
20411;SDS011;10365;52.578;8.138;2023-01-23T13:08:59;24.58;;;15.00;;
20411;SDS011;10365;52.578;8.138;2023-01-23T13:16:45;27.25;;;15.18;;
20411;SDS011;10365;52.578;8.138;2023-01-23T13:19:28;24.35;;;13.60;;
20411;SDS011;10365;52.578;8.138;2023-01-23T13:22:15;25.80;;;13.77;;
20411;SDS011;10365;52.578;8.138;2023-01-23T13:24:42;27.17;;;13.80;;
20411;SDS011;10365;52.578;8.138;2023-01-23T13:29:56;25.00;;;13.68;;
20411;SDS011;10365;52.578;8.138;2023-01-23T13:32:23;22.90;;;13.32;;
20411;SDS011;10365;52.578;8.138;2023-01-23T13:34:52;24.80;;;13.45;;
20411;SDS011;10365;52.578;8.138;2023-01-23T13:40:12;22.98;;;12.13;;
20411;SDS011;10365;52.578;8.138;2023-01-23T13:42:38;26.70;;;13.25;;
20411;SDS011;10365;52.578;8.138;2023-01-23T13:50:35;27.15;;;13.15;;
20411;SDS011;10365;52.578;8.138;2023-01-23T13:53:46;20.58;;;11.95;;
20411;SDS011;10365;52.578;8.138;2023-01-23T13:56:17;23.13;;;12.50;;
20411;SDS011;10365;52.578;8.138;2023-01-23T13:59:02;26.65;;;12.25;;
20411;SDS011;10365;52.578;8.138;2023-01-23T14:01:28;19.92;;;12.48;;
20411;SDS011;10365;52.578;8.138;2023-01-23T14:04:22;24.60;;;11.90;;
20411;SDS011;10365;52.578;8.138;2023-01-23T14:07:40;21.08;;;12.63;;
20411;SDS011;10365;52.578;8.138;2023-01-23T14:10:52;24.60;;;12.18;;
20411;SDS011;10365;52.578;8.138;2023-01-23T14:13:02;21.15;;;11.95;;
20411;SDS011;10365;52.578;8.138;2023-01-23T14:15:28;21.58;;;12.43;;
20411;SDS011;10365;52.578;8.138;2023-01-23T14:18:55;27.40;;;13.60;;
20411;SDS011;10365;52.578;8.138;2023-01-23T14:21:02;20.92;;;11.88;;
20411;SDS011;10365;52.578;8.138;2023-01-23T14:23:33;22.73;;;13.27;;
20411;SDS011;10365;52.578;8.138;2023-01-23T14:25:59;28.67;;;14.82;;
20411;SDS011;10365;52.578;8.138;2023-01-23T14:28:25;26.05;;;14.38;;
20411;SDS011;10365;52.578;8.138;2023-01-23T14:30:52;26.65;;;12.75;;
20411;SDS011;10365;52.578;8.138;2023-01-23T14:33:18;24.90;;;13.60;;
20411;SDS011;10365;52.578;8.138;2023-01-23T14:35:43;22.67;;;13.43;;
20411;SDS011;10365;52.578;8.138;2023-01-23T14:38:10;24.63;;;13.57;;
20411;SDS011;10365;52.578;8.138;2023-01-23T14:40:39;26.63;;;13.57;;
20411;SDS011;10365;52.578;8.138;2023-01-23T14:43:06;27.58;;;14.13;;
20411;SDS011;10365;52.578;8.138;2023-01-23T14:45:32;26.33;;;13.52;;
20411;SDS011;10365;52.578;8.138;2023-01-23T14:47:57;26.27;;;13.63;;
20411;SDS011;10365;52.578;8.138;2023-01-23T14:50:24;22.25;;;11.65;;
20411;SDS011;10365;52.578;8.138;2023-01-23T14:52:56;22.42;;;12.68;;
20411;SDS011;10365;52.578;8.138;2023-01-23T14:55:25;30.05;;;13.40;;
20411;SDS011;10365;52.578;8.138;2023-01-23T14:57:52;25.20;;;12.45;;
20411;SDS011;10365;52.578;8.138;2023-01-23T15:00:18;29.02;;;13.82;;
20411;SDS011;10365;52.578;8.138;2023-01-23T15:02:44;27.10;;;14.02;;
20411;SDS011;10365;52.578;8.138;2023-01-23T15:07:55;28.85;;;15.40;;
20411;SDS011;10365;52.578;8.138;2023-01-23T15:10:25;26.38;;;15.35;;
20411;SDS011;10365;52.578;8.138;2023-01-23T15:15:17;22.13;;;12.05;;
20411;SDS011;10365;52.578;8.138;2023-01-23T15:17:43;25.23;;;12.15;;
20411;SDS011;10365;52.578;8.138;2023-01-23T15:20:28;27.63;;;12.55;;
20411;SDS011;10365;52.578;8.138;2023-01-23T15:22:53;22.83;;;12.32;;
20411;SDS011;10365;52.578;8.138;2023-01-23T15:25:26;25.58;;;10.77;;
20411;SDS011;10365;52.578;8.138;2023-01-23T15:27:51;23.95;;;12.10;;
20411;SDS011;10365;52.578;8.138;2023-01-23T15:33:21;21.63;;;10.68;;
20411;SDS011;10365;52.578;8.138;2023-01-23T15:35:47;24.13;;;11.70;;
20411;SDS011;10365;52.578;8.138;2023-01-23T15:38:16;24.10;;;11.00;;
20411;SDS011;10365;52.578;8.138;2023-01-23T15:40:42;23.20;;;11.68;;
20411;SDS011;10365;52.578;8.138;2023-01-23T15:43:11;23.17;;;12.60;;
20411;SDS011;10365;52.578;8.138;2023-01-23T15:45:38;25.25;;;12.95;;
20411;SDS011;10365;52.578;8.138;2023-01-23T15:48:04;38.20;;;16.48;;
20411;SDS011;10365;52.578;8.138;2023-01-23T15:50:29;35.85;;;15.70;;
20411;SDS011;10365;52.578;8.138;2023-01-23T15:52:54;30.67;;;14.27;;
20411;SDS011;10365;52.578;8.138;2023-01-23T15:55:22;32.58;;;13.77;;
20411;SDS011;10365;52.578;8.138;2023-01-23T15:57:49;26.90;;;12.60;;
20411;SDS011;10365;52.578;8.138;2023-01-23T16:00:20;31.63;;;14.30;;
20411;SDS011;10365;52.578;8.138;2023-01-23T16:02:49;27.48;;;13.68;;
20411;SDS011;10365;52.578;8.138;2023-01-23T16:05:16;26.15;;;14.57;;
20411;SDS011;10365;52.578;8.138;2023-01-23T16:07:42;33.45;;;14.75;;
20411;SDS011;10365;52.578;8.138;2023-01-23T16:12:43;31.23;;;13.88;;
20411;SDS011;10365;52.578;8.138;2023-01-23T16:17:43;27.77;;;14.52;;
20411;SDS011;10365;52.578;8.138;2023-01-23T16:20:12;32.10;;;15.45;;
20411;SDS011;10365;52.578;8.138;2023-01-23T16:22:37;29.17;;;16.50;;
20411;SDS011;10365;52.578;8.138;2023-01-23T16:25:02;29.42;;;14.30;;
20411;SDS011;10365;52.578;8.138;2023-01-23T16:27:28;32.38;;;14.98;;
20411;SDS011;10365;52.578;8.138;2023-01-23T16:29:54;32.88;;;15.43;;